首页
METAR-TAF:

METAR-TAF

机场 :

維多利亞港口, 不列颠哥伦比亚, 加拿大

纬度: 48-25N, 经度: 123-20W, 海拔: 5米

当前天气观测

该预报发布于28分钟前的21:00 UTC
风速15节,风向西转西南
温度 12°C
湿度 58%
气压 1020 hPa
能見度: 24.1公里
少量云层高于3500英尺
多云层高于11000英尺

METAR: CYWH 182100Z 24015KT 15SM FEW035 BKN110 12/04 A3013 RMK CU2AC3 SLP205

时间: 14:28 (21:28 UTC)

预报

该预报发布于50分钟前的20:38 UTC
预报有效从18日的 21点(UTC)到 19日的 04点(UTC)
风速15节,风向西转西南,有时为25节阵风
能見度: 10公里
散云层高于4000英尺

TAF: CYWH 182038Z 1821/1904 24015G25KT P6SM SCT040 RMK NXT FCST WILL BE ISSUED AT 191415Z

超过4000个机场的气象观测和天气预报(METAR&TAF报告)。

可查询的气象台以黄色和红色小点在地图上表示。

将鼠标移到小点上方,可查看气象台名称。

然后点击查看天气观测和预报。

如需切换地图:点击带黑十字的绿色按钮放大地图;点击带横线的绿色按钮缩小地图;或者点击绿色箭头查看邻近地区的地图。


METAR-TAF: